sensor_id;sensor_type;location;lat;lon;timestamp;temperature;humidity
2391;DHT22;22957;50.824;4.360;2023-04-24T00:01:40;11.70;99.90
2391;DHT22;22957;50.824;4.360;2023-04-24T00:04:06;11.40;99.90
2391;DHT22;22957;50.824;4.360;2023-04-24T00:06:32;11.10;99.90
2391;DHT22;22957;50.824;4.360;2023-04-24T00:09:02;11.40;99.90
2391;DHT22;22957;50.824;4.360;2023-04-24T00:11:29;11.70;99.90
2391;DHT22;22957;50.824;4.360;2023-04-24T00:13:55;11.50;99.90
2391;DHT22;22957;50.824;4.360;2023-04-24T00:16:22;11.20;99.90
2391;DHT22;22957;50.824;4.360;2023-04-24T00:18:47;11.10;99.90
2391;DHT22;22957;50.824;4.360;2023-04-24T00:21:14;10.90;99.90
2391;DHT22;22957;50.824;4.360;2023-04-24T00:23:41;10.80;99.90
2391;DHT22;22957;50.824;4.360;2023-04-24T00:26:06;11.10;99.90
2391;DHT22;22957;50.824;4.360;2023-04-24T00:28:32;11.30;99.90
2391;DHT22;22957;50.824;4.360;2023-04-24T00:30:58;11.10;99.90
2391;DHT22;22957;50.824;4.360;2023-04-24T00:33:23;11.50;99.90
2391;DHT22;22957;50.824;4.360;2023-04-24T00:35:49;11.60;99.90
2391;DHT22;22957;50.824;4.360;2023-04-24T00:38:14;11.50;99.90
2391;DHT22;22957;50.824;4.360;2023-04-24T00:40:40;11.50;99.90
2391;DHT22;22957;50.824;4.360;2023-04-24T00:43:06;11.40;99.90
2391;DHT22;22957;50.824;4.360;2023-04-24T00:45:31;11.60;99.90
2391;DHT22;22957;50.824;4.360;2023-04-24T00:47:58;11.30;99.90
2391;DHT22;22957;50.824;4.360;2023-04-24T00:50:24;11.60;99.90
2391;DHT22;22957;50.824;4.360;2023-04-24T00:52:50;11.50;99.90
2391;DHT22;22957;50.824;4.360;2023-04-24T00:55:16;11.60;99.90
2391;DHT22;22957;50.824;4.360;2023-04-24T00:57:43;11.60;99.90
2391;DHT22;22957;50.824;4.360;2023-04-24T01:00:09;11.60;99.90
2391;DHT22;22957;50.824;4.360;2023-04-24T01:02:40;11.60;99.90
2391;DHT22;22957;50.824;4.360;2023-04-24T01:05:09;11.70;99.90
2391;DHT22;22957;50.824;4.360;2023-04-24T01:07:35;11.40;99.90
2391;DHT22;22957;50.824;4.360;2023-04-24T01:10:02;11.70;99.90
2391;DHT22;22957;50.824;4.360;2023-04-24T01:12:28;11.50;99.90
2391;DHT22;22957;50.824;4.360;2023-04-24T01:14:54;11.40;99.90
2391;DHT22;22957;50.824;4.360;2023-04-24T01:17:22;11.20;99.90
2391;DHT22;22957;50.824;4.360;2023-04-24T01:19:47;11.50;99.90
2391;DHT22;22957;50.824;4.360;2023-04-24T01:22:14;11.60;99.90
2391;DHT22;22957;50.824;4.360;2023-04-24T01:24:41;11.40;99.90
2391;DHT22;22957;50.824;4.360;2023-04-24T01:27:07;11.40;99.90
2391;DHT22;22957;50.824;4.360;2023-04-24T01:29:34;11.20;99.90
2391;DHT22;22957;50.824;4.360;2023-04-24T01:32:00;10.80;99.90
2391;DHT22;22957;50.824;4.360;2023-04-24T01:34:26;11.10;99.90
2391;DHT22;22957;50.824;4.360;2023-04-24T01:36:52;11.10;99.90
2391;DHT22;22957;50.824;4.360;2023-04-24T01:39:18;11.10;99.90
2391;DHT22;22957;50.824;4.360;2023-04-24T01:41:46;11.40;99.90
2391;DHT22;22957;50.824;4.360;2023-04-24T01:44:11;11.60;99.90
2391;DHT22;22957;50.824;4.360;2023-04-24T01:46:37;11.30;99.90
2391;DHT22;22957;50.824;4.360;2023-04-24T01:49:03;11.40;99.90
2391;DHT22;22957;50.824;4.360;2023-04-24T01:51:29;11.10;99.90
2391;DHT22;22957;50.824;4.360;2023-04-24T01:53:55;10.70;99.90
2391;DHT22;22957;50.824;4.360;2023-04-24T01:56:22;11.20;99.90
2391;DHT22;22957;50.824;4.360;2023-04-24T01:58:49;11.20;99.90
2391;DHT22;22957;50.824;4.360;2023-04-24T02:01:19;11.30;99.90
2391;DHT22;22957;50.824;4.360;2023-04-24T02:03:45;11.30;99.90
2391;DHT22;22957;50.824;4.360;2023-04-24T02:06:11;11.40;99.90
2391;DHT22;22957;50.824;4.360;2023-04-24T02:08:36;11.50;99.90
2391;DHT22;22957;50.824;4.360;2023-04-24T02:11:02;11.20;99.90
2391;DHT22;22957;50.824;4.360;2023-04-24T02:13:28;11.30;99.90
2391;DHT22;22957;50.824;4.360;2023-04-24T02:15:54;10.70;99.90
2391;DHT22;22957;50.824;4.360;2023-04-24T02:18:19;10.50;99.90
2391;DHT22;22957;50.824;4.360;2023-04-24T02:20:46;10.70;99.90
2391;DHT22;22957;50.824;4.360;2023-04-24T02:23:11;10.60;99.90
2391;DHT22;22957;50.824;4.360;2023-04-24T02:25:38;10.90;99.90
2391;DHT22;22957;50.824;4.360;2023-04-24T02:28:04;10.80;99.90
2391;DHT22;22957;50.824;4.360;2023-04-24T02:30:30;10.70;99.90
2391;DHT22;22957;50.824;4.360;2023-04-24T02:32:56;11.20;99.90
2391;DHT22;22957;50.824;4.360;2023-04-24T02:35:22;11.00;99.90
2391;DHT22;22957;50.824;4.360;2023-04-24T02:37:47;10.80;99.90
2391;DHT22;22957;50.824;4.360;2023-04-24T02:40:13;10.80;99.90
2391;DHT22;22957;50.824;4.360;2023-04-24T02:42:38;11.10;99.90
2391;DHT22;22957;50.824;4.360;2023-04-24T02:45:04;10.80;99.90
2391;DHT22;22957;50.824;4.360;2023-04-24T02:47:30;11.00;99.90
2391;DHT22;22957;50.824;4.360;2023-04-24T02:49:56;10.90;99.90
2391;DHT22;22957;50.824;4.360;2023-04-24T02:52:22;10.90;99.90
2391;DHT22;22957;50.824;4.360;2023-04-24T02:54:47;10.80;99.90
2391;DHT22;22957;50.824;4.360;2023-04-24T02:57:13;10.50;99.90
2391;DHT22;22957;50.824;4.360;2023-04-24T02:59:38;10.60;99.90
2391;DHT22;22957;50.824;4.360;2023-04-24T03:02:04;10.90;99.90
2391;DHT22;22957;50.824;4.360;2023-04-24T03:04:31;10.80;99.90
2391;DHT22;22957;50.824;4.360;2023-04-24T03:06:57;11.00;99.90
2391;DHT22;22957;50.824;4.360;2023-04-24T03:09:23;10.80;99.90
2391;DHT22;22957;50.824;4.360;2023-04-24T03:11:49;10.50;99.90
2391;DHT22;22957;50.824;4.360;2023-04-24T03:14:15;11.00;99.90
2391;DHT22;22957;50.824;4.360;2023-04-24T03:16:41;10.60;99.90
2391;DHT22;22957;50.824;4.360;2023-04-24T03:19:07;10.50;99.90
2391;DHT22;22957;50.824;4.360;2023-04-24T03:21:32;10.80;99.90
2391;DHT22;22957;50.824;4.360;2023-04-24T03:23:58;10.80;99.90
2391;DHT22;22957;50.824;4.360;2023-04-24T03:26:24;10.70;99.90
2391;DHT22;22957;50.824;4.360;2023-04-24T03:28:50;10.50;99.90
2391;DHT22;22957;50.824;4.360;2023-04-24T03:31:15;10.40;99.90
2391;DHT22;22957;50.824;4.360;2023-04-24T03:33:42;10.30;99.90
2391;DHT22;22957;50.824;4.360;2023-04-24T03:36:07;10.70;99.90
2391;DHT22;22957;50.824;4.360;2023-04-24T03:38:33;10.60;99.90
2391;DHT22;22957;50.824;4.360;2023-04-24T03:40:58;10.80;99.90
2391;DHT22;22957;50.824;4.360;2023-04-24T03:43:24;10.90;99.90
2391;DHT22;22957;50.824;4.360;2023-04-24T03:45:50;10.90;99.90
2391;DHT22;22957;50.824;4.360;2023-04-24T03:48:16;10.80;99.90
2391;DHT22;22957;50.824;4.360;2023-04-24T03:50:41;10.90;99.90
2391;DHT22;22957;50.824;4.360;2023-04-24T03:53:07;11.00;99.90
2391;DHT22;22957;50.824;4.360;2023-04-24T03:55:33;10.90;99.90
2391;DHT22;22957;50.824;4.360;2023-04-24T03:57:59;11.00;99.90
2391;DHT22;22957;50.824;4.360;2023-04-24T04:00:24;11.10;99.90
2391;DHT22;22957;50.824;4.360;2023-04-24T04:02:51;10.80;99.90
2391;DHT22;22957;50.824;4.360;2023-04-24T04:05:16;11.10;99.90
2391;DHT22;22957;50.824;4.360;2023-04-24T04:07:42;10.80;99.90
2391;DHT22;22957;50.824;4.360;2023-04-24T04:10:08;11.20;99.90
2391;DHT22;22957;50.824;4.360;2023-04-24T04:12:33;10.80;99.90
2391;DHT22;22957;50.824;4.360;2023-04-24T04:14:59;10.90;99.90
2391;DHT22;22957;50.824;4.360;2023-04-24T04:17:25;11.40;99.90
2391;DHT22;22957;50.824;4.360;2023-04-24T04:19:51;11.70;99.90
2391;DHT22;22957;50.824;4.360;2023-04-24T04:22:16;11.60;99.90
2391;DHT22;22957;50.824;4.360;2023-04-24T04:24:42;11.60;99.90
2391;DHT22;22957;50.824;4.360;2023-04-24T04:27:08;11.60;99.90
2391;DHT22;22957;50.824;4.360;2023-04-24T04:29:34;11.10;99.90
2391;DHT22;22957;50.824;4.360;2023-04-24T04:32:00;11.10;99.90
2391;DHT22;22957;50.824;4.360;2023-04-24T04:34:26;11.10;99.90
2391;DHT22;22957;50.824;4.360;2023-04-24T04:36:52;11.10;99.90
2391;DHT22;22957;50.824;4.360;2023-04-24T04:39:17;11.40;99.90
2391;DHT22;22957;50.824;4.360;2023-04-24T04:41:44;11.40;99.90
2391;DHT22;22957;50.824;4.360;2023-04-24T04:44:11;11.60;99.90
2391;DHT22;22957;50.824;4.360;2023-04-24T04:46:38;11.60;99.90
2391;DHT22;22957;50.824;4.360;2023-04-24T04:49:03;11.50;99.90
2391;DHT22;22957;50.824;4.360;2023-04-24T04:51:29;11.80;99.90
2391;DHT22;22957;50.824;4.360;2023-04-24T04:53:56;11.60;99.90
2391;DHT22;22957;50.824;4.360;2023-04-24T04:56:22;11.90;99.90
2391;DHT22;22957;50.824;4.360;2023-04-24T04:58:47;12.00;99.90
2391;DHT22;22957;50.824;4.360;2023-04-24T05:01:13;12.10;99.90
2391;DHT22;22957;50.824;4.360;2023-04-24T05:03:39;12.00;99.90
2391;DHT22;22957;50.824;4.360;2023-04-24T05:06:05;12.10;99.90
2391;DHT22;22957;50.824;4.360;2023-04-24T05:08:31;11.90;99.90
2391;DHT22;22957;50.824;4.360;2023-04-24T05:10:56;12.00;99.90
2391;DHT22;22957;50.824;4.360;2023-04-24T05:13:22;12.00;99.90
2391;DHT22;22957;50.824;4.360;2023-04-24T05:15:48;12.10;99.90
2391;DHT22;22957;50.824;4.360;2023-04-24T05:18:13;11.60;99.90
2391;DHT22;22957;50.824;4.360;2023-04-24T05:20:39;12.00;99.90
2391;DHT22;22957;50.824;4.360;2023-04-24T05:23:05;11.90;99.90
2391;DHT22;22957;50.824;4.360;2023-04-24T05:25:31;12.00;99.90
2391;DHT22;22957;50.824;4.360;2023-04-24T05:28:00;11.50;99.90
2391;DHT22;22957;50.824;4.360;2023-04-24T05:30:26;11.90;99.90
2391;DHT22;22957;50.824;4.360;2023-04-24T05:32:52;11.40;99.90
2391;DHT22;22957;50.824;4.360;2023-04-24T05:35:17;12.00;99.90
2391;DHT22;22957;50.824;4.360;2023-04-24T05:37:44;11.90;99.90
2391;DHT22;22957;50.824;4.360;2023-04-24T05:40:10;11.90;99.90
2391;DHT22;22957;50.824;4.360;2023-04-24T05:42:36;11.50;99.90
2391;DHT22;22957;50.824;4.360;2023-04-24T05:45:02;11.60;99.90
2391;DHT22;22957;50.824;4.360;2023-04-24T05:47:28;11.40;99.90
2391;DHT22;22957;50.824;4.360;2023-04-24T05:49:54;11.40;99.90
2391;DHT22;22957;50.824;4.360;2023-04-24T05:52:19;11.30;99.90
2391;DHT22;22957;50.824;4.360;2023-04-24T05:54:45;11.40;99.90
2391;DHT22;22957;50.824;4.360;2023-04-24T05:57:11;11.50;99.90
2391;DHT22;22957;50.824;4.360;2023-04-24T05:59:37;11.50;99.90
2391;DHT22;22957;50.824;4.360;2023-04-24T06:02:06;10.80;99.90
2391;DHT22;22957;50.824;4.360;2023-04-24T06:04:32;11.20;99.90
2391;DHT22;22957;50.824;4.360;2023-04-24T06:06:58;11.20;99.90
2391;DHT22;22957;50.824;4.360;2023-04-24T06:09:25;11.00;99.90
2391;DHT22;22957;50.824;4.360;2023-04-24T06:11:51;11.00;99.90
2391;DHT22;22957;50.824;4.360;2023-04-24T06:14:18;11.00;99.90
2391;DHT22;22957;50.824;4.360;2023-04-24T06:16:44;11.00;99.90
2391;DHT22;22957;50.824;4.360;2023-04-24T06:19:10;11.00;99.90
2391;DHT22;22957;50.824;4.360;2023-04-24T06:21:35;10.90;99.90
2391;DHT22;22957;50.824;4.360;2023-04-24T06:24:01;10.90;99.90
2391;DHT22;22957;50.824;4.360;2023-04-24T06:26:27;10.80;99.90
2391;DHT22;22957;50.824;4.360;2023-04-24T06:28:53;10.70;99.90
2391;DHT22;22957;50.824;4.360;2023-04-24T06:31:23;10.90;99.90
2391;DHT22;22957;50.824;4.360;2023-04-24T06:33:49;10.90;99.90
2391;DHT22;22957;50.824;4.360;2023-04-24T06:36:15;11.10;99.90
2391;DHT22;22957;50.824;4.360;2023-04-24T06:38:41;11.00;99.90
2391;DHT22;22957;50.824;4.360;2023-04-24T06:41:07;11.20;99.90
2391;DHT22;22957;50.824;4.360;2023-04-24T06:43:33;11.40;99.90
2391;DHT22;22957;50.824;4.360;2023-04-24T06:45:59;11.20;99.90
2391;DHT22;22957;50.824;4.360;2023-04-24T06:48:25;11.20;99.90
2391;DHT22;22957;50.824;4.360;2023-04-24T06:50:51;11.30;99.90
2391;DHT22;22957;50.824;4.360;2023-04-24T06:53:17;11.40;99.90
2391;DHT22;22957;50.824;4.360;2023-04-24T06:55:43;11.40;99.90
2391;DHT22;22957;50.824;4.360;2023-04-24T06:58:10;11.60;99.90
2391;DHT22;22957;50.824;4.360;2023-04-24T07:00:36;11.50;99.90
2391;DHT22;22957;50.824;4.360;2023-04-24T07:03:02;11.50;99.90
2391;DHT22;22957;50.824;4.360;2023-04-24T07:05:28;11.00;99.90
2391;DHT22;22957;50.824;4.360;2023-04-24T07:07:53;11.00;99.90
2391;DHT22;22957;50.824;4.360;2023-04-24T07:10:19;11.10;99.90
2391;DHT22;22957;50.824;4.360;2023-04-24T07:12:45;11.20;99.90
2391;DHT22;22957;50.824;4.360;2023-04-24T07:15:12;11.80;99.90
2391;DHT22;22957;50.824;4.360;2023-04-24T07:17:37;11.70;99.90
2391;DHT22;22957;50.824;4.360;2023-04-24T07:20:09;11.80;99.90
2391;DHT22;22957;50.824;4.360;2023-04-24T07:22:37;12.10;99.90
2391;DHT22;22957;50.824;4.360;2023-04-24T07:25:03;12.70;99.90
2391;DHT22;22957;50.824;4.360;2023-04-24T07:27:28;12.30;99.90
2391;DHT22;22957;50.824;4.360;2023-04-24T07:29:54;12.30;99.90
2391;DHT22;22957;50.824;4.360;2023-04-24T07:32:20;12.30;99.90
2391;DHT22;22957;50.824;4.360;2023-04-24T07:34:45;12.40;99.90
2391;DHT22;22957;50.824;4.360;2023-04-24T07:37:11;12.20;99.90
2391;DHT22;22957;50.824;4.360;2023-04-24T07:39:37;12.50;99.90
2391;DHT22;22957;50.824;4.360;2023-04-24T07:42:02;12.40;99.90
2391;DHT22;22957;50.824;4.360;2023-04-24T07:44:28;12.40;99.90
2391;DHT22;22957;50.824;4.360;2023-04-24T07:46:54;12.60;99.90
2391;DHT22;22957;50.824;4.360;2023-04-24T07:49:21;12.60;99.90
2391;DHT22;22957;50.824;4.360;2023-04-24T07:51:46;12.40;99.90
2391;DHT22;22957;50.824;4.360;2023-04-24T07:54:12;12.50;99.90
2391;DHT22;22957;50.824;4.360;2023-04-24T07:56:38;12.40;99.90
2391;DHT22;22957;50.824;4.360;2023-04-24T07:59:04;12.80;99.90
2391;DHT22;22957;50.824;4.360;2023-04-24T08:01:30;12.60;99.90
2391;DHT22;22957;50.824;4.360;2023-04-24T08:03:56;12.60;99.90
2391;DHT22;22957;50.824;4.360;2023-04-24T08:06:22;12.80;99.90
2391;DHT22;22957;50.824;4.360;2023-04-24T08:08:48;13.30;99.90
2391;DHT22;22957;50.824;4.360;2023-04-24T08:11:13;13.20;99.90
2391;DHT22;22957;50.824;4.360;2023-04-24T08:13:39;13.10;99.90
2391;DHT22;22957;50.824;4.360;2023-04-24T08:16:05;12.90;99.90
2391;DHT22;22957;50.824;4.360;2023-04-24T08:18:30;13.10;99.90
2391;DHT22;22957;50.824;4.360;2023-04-24T08:20:56;13.30;99.90
2391;DHT22;22957;50.824;4.360;2023-04-24T08:23:26;13.00;99.90
2391;DHT22;22957;50.824;4.360;2023-04-24T08:25:52;13.30;99.90
2391;DHT22;22957;50.824;4.360;2023-04-24T08:28:18;13.40;99.90
2391;DHT22;22957;50.824;4.360;2023-04-24T08:30:46;13.50;99.90
2391;DHT22;22957;50.824;4.360;2023-04-24T08:33:12;13.70;99.90
2391;DHT22;22957;50.824;4.360;2023-04-24T08:35:38;13.80;99.90
2391;DHT22;22957;50.824;4.360;2023-04-24T08:38:04;13.50;99.90
2391;DHT22;22957;50.824;4.360;2023-04-24T08:40:34;13.20;99.90
2391;DHT22;22957;50.824;4.360;2023-04-24T08:43:00;13.00;99.90
2391;DHT22;22957;50.824;4.360;2023-04-24T08:45:26;14.10;99.90
2391;DHT22;22957;50.824;4.360;2023-04-24T08:47:53;14.50;99.90
2391;DHT22;22957;50.824;4.360;2023-04-24T08:50:21;15.70;99.90
2391;DHT22;22957;50.824;4.360;2023-04-24T08:52:49;17.00;99.90
2391;DHT22;22957;50.824;4.360;2023-04-24T08:55:15;17.30;99.90
2391;DHT22;22957;50.824;4.360;2023-04-24T08:57:44;17.00;99.90
2391;DHT22;22957;50.824;4.360;2023-04-24T09:00:11;17.40;99.90
2391;DHT22;22957;50.824;4.360;2023-04-24T09:02:39;18.50;99.90
2391;DHT22;22957;50.824;4.360;2023-04-24T09:05:06;18.00;99.90
2391;DHT22;22957;50.824;4.360;2023-04-24T09:07:35;17.40;99.90
2391;DHT22;22957;50.824;4.360;2023-04-24T09:10:03;18.50;99.90
2391;DHT22;22957;50.824;4.360;2023-04-24T09:12:28;18.10;99.90
2391;DHT22;22957;50.824;4.360;2023-04-24T09:14:54;18.50;99.90
2391;DHT22;22957;50.824;4.360;2023-04-24T09:17:21;19.00;99.90
2391;DHT22;22957;50.824;4.360;2023-04-24T09:19:48;18.50;99.90
2391;DHT22;22957;50.824;4.360;2023-04-24T09:22:15;18.50;99.90
2391;DHT22;22957;50.824;4.360;2023-04-24T09:24:41;17.70;99.90
2391;DHT22;22957;50.824;4.360;2023-04-24T09:27:07;17.20;99.90
2391;DHT22;22957;50.824;4.360;2023-04-24T09:29:32;16.90;99.90
2391;DHT22;22957;50.824;4.360;2023-04-24T09:31:58;16.30;99.90
2391;DHT22;22957;50.824;4.360;2023-04-24T09:34:27;16.00;99.90
2391;DHT22;22957;50.824;4.360;2023-04-24T09:36:54;15.70;99.90
2391;DHT22;22957;50.824;4.360;2023-04-24T09:39:20;15.20;99.90
2391;DHT22;22957;50.824;4.360;2023-04-24T09:41:53;15.70;99.90
2391;DHT22;22957;50.824;4.360;2023-04-24T09:44:21;16.40;99.90
2391;DHT22;22957;50.824;4.360;2023-04-24T09:46:52;17.40;99.90
2391;DHT22;22957;50.824;4.360;2023-04-24T09:49:31;18.40;99.90
2391;DHT22;22957;50.824;4.360;2023-04-24T09:52:09;18.20;99.90
2391;DHT22;22957;50.824;4.360;2023-04-24T09:54:36;17.90;99.90
2391;DHT22;22957;50.824;4.360;2023-04-24T09:57:05;16.80;99.90
2391;DHT22;22957;50.824;4.360;2023-04-24T09:59:32;16.30;99.90
2391;DHT22;22957;50.824;4.360;2023-04-24T10:01:59;16.40;99.90
2391;DHT22;22957;50.824;4.360;2023-04-24T10:04:26;16.50;99.90
2391;DHT22;22957;50.824;4.360;2023-04-24T10:06:55;16.60;99.90
2391;DHT22;22957;50.824;4.360;2023-04-24T10:09:22;16.60;99.90
2391;DHT22;22957;50.824;4.360;2023-04-24T10:11:50;16.40;99.90
2391;DHT22;22957;50.824;4.360;2023-04-24T10:14:17;16.00;99.90
2391;DHT22;22957;50.824;4.360;2023-04-24T10:16:44;16.40;99.90
2391;DHT22;22957;50.824;4.360;2023-04-24T10:19:12;16.50;99.90
2391;DHT22;22957;50.824;4.360;2023-04-24T10:21:40;16.60;99.90
2391;DHT22;22957;50.824;4.360;2023-04-24T10:24:08;16.30;99.90
2391;DHT22;22957;50.824;4.360;2023-04-24T10:26:35;16.50;99.90
2391;DHT22;22957;50.824;4.360;2023-04-24T10:29:01;16.30;99.90
2391;DHT22;22957;50.824;4.360;2023-04-24T10:31:28;16.70;99.90
2391;DHT22;22957;50.824;4.360;2023-04-24T10:33:56;16.20;99.90
2391;DHT22;22957;50.824;4.360;2023-04-24T10:36:24;16.40;99.90
2391;DHT22;22957;50.824;4.360;2023-04-24T10:38:53;16.80;99.90
2391;DHT22;22957;50.824;4.360;2023-04-24T10:41:20;16.10;99.90
2391;DHT22;22957;50.824;4.360;2023-04-24T10:44:03;16.20;99.90
2391;DHT22;22957;50.824;4.360;2023-04-24T10:46:30;15.90;99.90
2391;DHT22;22957;50.824;4.360;2023-04-24T10:48:56;16.50;99.90
2391;DHT22;22957;50.824;4.360;2023-04-24T10:51:23;16.70;99.90
2391;DHT22;22957;50.824;4.360;2023-04-24T10:53:52;16.20;99.90
2391;DHT22;22957;50.824;4.360;2023-04-24T10:56:18;16.10;99.90
2391;DHT22;22957;50.824;4.360;2023-04-24T10:58:50;16.70;99.90
2391;DHT22;22957;50.824;4.360;2023-04-24T11:01:37;17.50;99.90
2391;DHT22;22957;50.824;4.360;2023-04-24T11:04:03;17.00;99.90
2391;DHT22;22957;50.824;4.360;2023-04-24T11:06:30;16.90;99.90
2391;DHT22;22957;50.824;4.360;2023-04-24T11:09:05;17.10;99.90
2391;DHT22;22957;50.824;4.360;2023-04-24T11:11:32;17.50;99.90
2391;DHT22;22957;50.824;4.360;2023-04-24T11:16:29;17.50;99.90
2391;DHT22;22957;50.824;4.360;2023-04-24T11:19:08;17.40;99.90
2391;DHT22;22957;50.824;4.360;2023-04-24T11:24:32;17.40;99.90
2391;DHT22;22957;50.824;4.360;2023-04-24T11:32:29;18.40;99.90
2391;DHT22;22957;50.824;4.360;2023-04-24T11:34:57;18.40;99.90
2391;DHT22;22957;50.824;4.360;2023-04-24T11:37:26;18.50;99.90
2391;DHT22;22957;50.824;4.360;2023-04-24T11:39:56;18.40;99.90
2391;DHT22;22957;50.824;4.360;2023-04-24T11:42:23;18.80;99.90
2391;DHT22;22957;50.824;4.360;2023-04-24T11:44:53;18.90;99.90
2391;DHT22;22957;50.824;4.360;2023-04-24T11:47:42;18.10;99.90
2391;DHT22;22957;50.824;4.360;2023-04-24T11:50:09;17.10;99.90
2391;DHT22;22957;50.824;4.360;2023-04-24T11:52:42;16.50;99.90
2391;DHT22;22957;50.824;4.360;2023-04-24T11:57:54;17.20;99.90
2391;DHT22;22957;50.824;4.360;2023-04-24T12:00:22;17.50;99.90
2391;DHT22;22957;50.824;4.360;2023-04-24T12:02:49;18.10;99.90
2391;DHT22;22957;50.824;4.360;2023-04-24T12:05:23;17.80;99.90
2391;DHT22;22957;50.824;4.360;2023-04-24T12:07:49;18.60;99.90
2391;DHT22;22957;50.824;4.360;2023-04-24T12:10:20;19.20;99.90
2391;DHT22;22957;50.824;4.360;2023-04-24T12:12:46;19.40;99.90
2391;DHT22;22957;50.824;4.360;2023-04-24T12:15:12;20.00;99.90
2391;DHT22;22957;50.824;4.360;2023-04-24T12:17:41;19.30;99.90
2391;DHT22;22957;50.824;4.360;2023-04-24T12:20:08;19.80;99.90
2391;DHT22;22957;50.824;4.360;2023-04-24T12:22:49;20.70;98.90
2391;DHT22;22957;50.824;4.360;2023-04-24T12:25:19;20.40;98.50
2391;DHT22;22957;50.824;4.360;2023-04-24T12:27:46;20.00;99.20
2391;DHT22;22957;50.824;4.360;2023-04-24T12:30:16;19.60;99.40
2391;DHT22;22957;50.824;4.360;2023-04-24T12:32:47;20.50;98.80
2391;DHT22;22957;50.824;4.360;2023-04-24T12:35:14;20.40;98.20
2391;DHT22;22957;50.824;4.360;2023-04-24T12:37:43;20.20;98.20
2391;DHT22;22957;50.824;4.360;2023-04-24T12:40:10;20.20;98.40
2391;DHT22;22957;50.824;4.360;2023-04-24T12:42:43;20.40;97.70
2391;DHT22;22957;50.824;4.360;2023-04-24T12:45:08;20.50;97.60
2391;DHT22;22957;50.824;4.360;2023-04-24T12:47:35;19.50;97.80
2391;DHT22;22957;50.824;4.360;2023-04-24T12:50:01;18.80;98.60
2391;DHT22;22957;50.824;4.360;2023-04-24T12:52:28;19.30;98.80
2391;DHT22;22957;50.824;4.360;2023-04-24T12:54:59;20.30;97.70
2391;DHT22;22957;50.824;4.360;2023-04-24T12:57:29;20.70;97.10
2391;DHT22;22957;50.824;4.360;2023-04-24T12:59:56;20.30;96.60
2391;DHT22;22957;50.824;4.360;2023-04-24T13:02:23;20.70;96.30
2391;DHT22;22957;50.824;4.360;2023-04-24T13:04:49;20.40;96.30
2391;DHT22;22957;50.824;4.360;2023-04-24T13:07:16;20.30;95.90
2391;DHT22;22957;50.824;4.360;2023-04-24T13:09:42;19.30;96.70
2391;DHT22;22957;50.824;4.360;2023-04-24T13:12:09;18.90;97.30
2391;DHT22;22957;50.824;4.360;2023-04-24T13:14:35;18.70;97.50
2391;DHT22;22957;50.824;4.360;2023-04-24T13:17:01;18.90;97.50
2391;DHT22;22957;50.824;4.360;2023-04-24T13:19:27;18.60;97.80
2391;DHT22;22957;50.824;4.360;2023-04-24T13:21:56;19.20;96.70
2391;DHT22;22957;50.824;4.360;2023-04-24T13:24:25;18.70;97.00
2391;DHT22;22957;50.824;4.360;2023-04-24T13:26:52;19.20;97.10
2391;DHT22;22957;50.824;4.360;2023-04-24T13:29:18;18.70;98.10
2391;DHT22;22957;50.824;4.360;2023-04-24T13:31:43;19.10;98.10
2391;DHT22;22957;50.824;4.360;2023-04-24T13:34:09;19.70;97.50
2391;DHT22;22957;50.824;4.360;2023-04-24T13:36:35;19.80;97.40
2391;DHT22;22957;50.824;4.360;2023-04-24T13:39:02;20.20;95.90
2391;DHT22;22957;50.824;4.360;2023-04-24T13:41:29;20.40;95.20
2391;DHT22;22957;50.824;4.360;2023-04-24T13:43:56;20.10;95.50
2391;DHT22;22957;50.824;4.360;2023-04-24T13:46:21;19.60;95.50
2391;DHT22;22957;50.824;4.360;2023-04-24T13:48:47;19.50;95.90
2391;DHT22;22957;50.824;4.360;2023-04-24T13:51:13;19.60;95.60
2391;DHT22;22957;50.824;4.360;2023-04-24T13:53:38;20.00;95.80
2391;DHT22;22957;50.824;4.360;2023-04-24T13:56:05;20.00;95.40
2391;DHT22;22957;50.824;4.360;2023-04-24T13:58:34;20.20;95.20
2391;DHT22;22957;50.824;4.360;2023-04-24T14:01:01;19.20;95.90
2391;DHT22;22957;50.824;4.360;2023-04-24T14:03:27;19.00;96.50
2391;DHT22;22957;50.824;4.360;2023-04-24T14:05:52;18.70;96.70
2391;DHT22;22957;50.824;4.360;2023-04-24T14:08:18;18.50;96.70
2391;DHT22;22957;50.824;4.360;2023-04-24T14:10:43;19.30;94.90
2391;DHT22;22957;50.824;4.360;2023-04-24T14:13:09;19.20;94.90
2391;DHT22;22957;50.824;4.360;2023-04-24T14:15:35;19.50;94.70
2391;DHT22;22957;50.824;4.360;2023-04-24T14:18:01;19.10;95.00
2391;DHT22;22957;50.824;4.360;2023-04-24T14:20:28;18.90;94.70
2391;DHT22;22957;50.824;4.360;2023-04-24T14:22:54;18.60;94.80
2391;DHT22;22957;50.824;4.360;2023-04-24T14:25:19;17.90;95.00
2391;DHT22;22957;50.824;4.360;2023-04-24T14:27:45;17.80;95.90
2391;DHT22;22957;50.824;4.360;2023-04-24T14:30:12;17.70;96.00
2391;DHT22;22957;50.824;4.360;2023-04-24T14:32:39;18.20;95.40
2391;DHT22;22957;50.824;4.360;2023-04-24T14:35:06;17.90;94.90
2391;DHT22;22957;50.824;4.360;2023-04-24T14:37:32;17.40;95.60
2391;DHT22;22957;50.824;4.360;2023-04-24T14:39:57;17.30;95.60
2391;DHT22;22957;50.824;4.360;2023-04-24T14:42:23;17.50;94.70
2391;DHT22;22957;50.824;4.360;2023-04-24T14:44:48;16.80;95.50
2391;DHT22;22957;50.824;4.360;2023-04-24T14:47:14;16.90;95.50
2391;DHT22;22957;50.824;4.360;2023-04-24T14:49:40;16.60;95.90
2391;DHT22;22957;50.824;4.360;2023-04-24T14:52:06;16.60;96.00
2391;DHT22;22957;50.824;4.360;2023-04-24T14:54:31;17.00;95.90
2391;DHT22;22957;50.824;4.360;2023-04-24T14:56:57;16.80;96.20
2391;DHT22;22957;50.824;4.360;2023-04-24T14:59:22;17.50;96.10
2391;DHT22;22957;50.824;4.360;2023-04-24T15:01:48;17.30;96.00
2391;DHT22;22957;50.824;4.360;2023-04-24T15:04:16;17.20;95.80
2391;DHT22;22957;50.824;4.360;2023-04-24T15:06:41;16.70;95.90
2391;DHT22;22957;50.824;4.360;2023-04-24T15:09:07;17.40;96.30
2391;DHT22;22957;50.824;4.360;2023-04-24T15:11:33;17.80;95.80
2391;DHT22;22957;50.824;4.360;2023-04-24T15:13:59;17.80;95.70
2391;DHT22;22957;50.824;4.360;2023-04-24T15:16:25;18.10;95.50
2391;DHT22;22957;50.824;4.360;2023-04-24T15:18:50;17.70;96.10
2391;DHT22;22957;50.824;4.360;2023-04-24T15:21:16;18.20;94.80
2391;DHT22;22957;50.824;4.360;2023-04-24T15:23:42;18.40;94.90
2391;DHT22;22957;50.824;4.360;2023-04-24T15:26:07;18.00;94.70
2391;DHT22;22957;50.824;4.360;2023-04-24T15:28:33;18.10;94.60
2391;DHT22;22957;50.824;4.360;2023-04-24T15:30:58;17.90;94.00
2391;DHT22;22957;50.824;4.360;2023-04-24T15:33:25;17.60;94.40
2391;DHT22;22957;50.824;4.360;2023-04-24T15:35:51;17.30;94.90
2391;DHT22;22957;50.824;4.360;2023-04-24T15:38:16;18.00;94.80
2391;DHT22;22957;50.824;4.360;2023-04-24T15:40:42;17.80;94.50
2391;DHT22;22957;50.824;4.360;2023-04-24T15:43:08;17.60;95.00
2391;DHT22;22957;50.824;4.360;2023-04-24T15:45:33;18.10;94.60
2391;DHT22;22957;50.824;4.360;2023-04-24T15:47:59;17.70;95.10
2391;DHT22;22957;50.824;4.360;2023-04-24T15:50:26;17.90;95.20
2391;DHT22;22957;50.824;4.360;2023-04-24T15:52:51;17.80;95.10
2391;DHT22;22957;50.824;4.360;2023-04-24T15:55:17;17.50;95.50